Time;durP1;ratioP1;P1;durP2;ratioP2;P2;SDS_P1;SDS_P2;PMS_P1;PMS_P2;Temp;Humidity;BMP_temperature;BMP_pressure;BME280_temperature;BME280_humidity;BME280_pressure;Samples;Min_cycle;Max_cycle;Signal;HPM_P1;HPM_P2
2022/02/18 00:00:30;;;;;;;0.60;0.60;;;6.50;99.90;;;;;;4437122;32;20113;-63
2022/02/18 00:02:55;;;;;;;0.52;0.52;;;6.50;99.90;;;;;;4438399;32;20088;-63
2022/02/18 00:05:22;;;;;;;2.10;0.47;;;6.50;99.90;;;;;;4437529;32;20065;-63
2022/02/18 00:07:47;;;;;;;0.57;0.57;;;6.50;99.90;;;;;;4438987;32;20309;-63
2022/02/18 00:10:13;;;;;;;0.40;0.40;;;6.50;99.90;;;;;;4439038;32;20116;-63
2022/02/18 00:12:39;;;;;;;0.30;0.30;;;6.50;99.90;;;;;;4440818;32;20069;-63
2022/02/18 00:15:05;;;;;;;0.85;0.85;;;6.50;99.90;;;;;;4438909;32;20170;-63
2022/02/18 00:17:31;;;;;;;0.57;0.57;;;6.50;99.90;;;;;;4441292;32;20065;-63
2022/02/18 00:19:56;;;;;;;14.15;1.75;;;6.50;99.90;;;;;;4441309;32;20413;-64
2022/02/18 00:22:23;;;;;;;6.15;1.20;;;6.40;99.90;;;;;;4440513;32;20546;-64
2022/02/18 00:24:49;;;;;;;0.50;0.50;;;6.40;99.90;;;;;;4441413;32;20547;-63
2022/02/18 00:27:15;;;;;;;4.55;1.67;;;6.40;99.90;;;;;;4440908;32;20100;-63
2022/02/18 00:29:41;;;;;;;0.35;0.35;;;6.40;99.90;;;;;;4441325;32;20073;-63
2022/02/18 00:32:08;;;;;;;0.40;0.40;;;6.40;99.90;;;;;;4442558;32;20089;-63
2022/02/18 00:34:35;;;;;;;0.50;0.50;;;6.40;99.90;;;;;;4442138;32;20073;-63
2022/02/18 00:37:01;;;;;;;0.60;0.60;;;6.40;99.90;;;;;;4442738;32;20119;-63
2022/02/18 00:39:26;;;;;;;0.35;0.35;;;6.40;99.90;;;;;;4442417;32;20092;-63
2022/02/18 00:41:52;;;;;;;0.37;0.37;;;6.40;99.90;;;;;;4441875;32;20102;-63
2022/02/18 00:44:17;;;;;;;11.57;2.67;;;6.40;99.90;;;;;;4443000;32;20061;-63
2022/02/18 00:46:43;;;;;;;1.90;0.75;;;6.40;99.90;;;;;;4442123;32;20077;-63
2022/02/18 00:49:08;;;;;;;10.90;0.95;;;6.40;99.90;;;;;;4442460;32;20525;-63
2022/02/18 00:51:34;;;;;;;0.43;0.40;;;6.40;99.90;;;;;;4442842;32;20064;-63
2022/02/18 00:53:59;;;;;;;0.50;0.50;;;6.40;99.90;;;;;;4442666;32;20076;-63
2022/02/18 00:56:25;;;;;;;0.40;0.40;;;6.30;99.90;;;;;;4441596;32;20628;-63
2022/02/18 00:58:50;;;;;;;0.40;0.40;;;6.40;99.90;;;;;;4442695;32;20081;-63
2022/02/18 01:01:16;;;;;;;1.75;1.02;;;6.40;99.90;;;;;;4441930;32;20085;-64
2022/02/18 01:03:41;;;;;;;0.98;0.55;;;6.30;99.90;;;;;;4442461;32;20073;-63
2022/02/18 01:06:07;;;;;;;0.85;0.85;;;6.30;99.90;;;;;;4441405;32;20533;-63
2022/02/18 01:08:33;;;;;;;0.40;0.40;;;6.30;99.90;;;;;;4441988;32;20097;-63
2022/02/18 01:10:58;;;;;;;1.12;0.98;;;6.30;99.90;;;;;;4440128;32;20085;-63
2022/02/18 01:13:24;;;;;;;1.25;1.10;;;6.30;99.90;;;;;;4441505;32;20116;-63
2022/02/18 01:15:49;;;;;;;0.40;0.40;;;6.30;99.90;;;;;;4441207;32;20057;-63
2022/02/18 01:18:15;;;;;;;0.30;0.30;;;6.30;99.90;;;;;;4442033;32;20096;-64
2022/02/18 01:20:41;;;;;;;0.50;0.50;;;6.30;99.90;;;;;;4440833;32;20062;-64
2022/02/18 01:23:06;;;;;;;0.62;0.57;;;6.20;99.90;;;;;;4441844;32;20077;-63
2022/02/18 01:25:32;;;;;;;0.60;0.60;;;6.30;99.90;;;;;;4442751;32;20124;-64
2022/02/18 01:27:58;;;;;;;0.50;0.50;;;6.30;99.90;;;;;;4443288;32;20061;-63
2022/02/18 01:30:25;;;;;;;0.50;0.50;;;6.30;99.90;;;;;;4439276;32;20057;-63
2022/02/18 01:32:51;;;;;;;0.50;0.50;;;6.20;99.90;;;;;;4440183;32;20454;-64
2022/02/18 01:35:17;;;;;;;0.40;0.40;;;6.30;99.90;;;;;;4440417;32;20082;-63
2022/02/18 01:37:45;;;;;;;0.60;0.60;;;6.30;99.90;;;;;;4439825;32;20583;-63
2022/02/18 01:40:11;;;;;;;0.40;0.40;;;6.30;99.90;;;;;;4438688;32;20427;-63
2022/02/18 01:42:37;;;;;;;1.40;0.80;;;6.20;99.90;;;;;;4440452;32;20165;-63
2022/02/18 01:45:03;;;;;;;0.30;0.30;;;6.20;99.90;;;;;;4441135;32;20069;-63
2022/02/18 01:47:28;;;;;;;0.98;0.93;;;6.20;99.90;;;;;;4441944;32;20056;-63
2022/02/18 01:49:58;;;;;;;0.40;0.40;;;6.20;99.90;;;;;;4438246;32;20056;-63
2022/02/18 01:52:27;;;;;;;0.50;0.50;;;6.10;99.90;;;;;;4439414;32;20073;-63
2022/02/18 01:54:52;;;;;;;0.50;0.50;;;6.20;99.90;;;;;;4441514;32;20560;-63
2022/02/18 01:57:18;;;;;;;0.60;0.60;;;6.20;99.90;;;;;;4442789;32;20115;-63
2022/02/18 01:59:43;;;;;;;2.72;1.23;;;6.10;99.90;;;;;;4438789;32;20057;-62
2022/02/18 02:02:09;;;;;;;0.43;0.43;;;6.20;99.90;;;;;;4441577;32;20096;-62
2022/02/18 02:04:35;;;;;;;9.95;1.65;;;6.10;99.90;;;;;;4439328;32;20512;-63
2022/02/18 02:07:06;;;;;;;0.40;0.40;;;6.10;99.90;;;;;;4440653;32;20068;-63
2022/02/18 02:09:32;;;;;;;0.60;0.60;;;6.10;99.90;;;;;;4439248;32;20085;-63
2022/02/18 02:11:58;;;;;;;0.35;0.35;;;6.10;99.90;;;;;;4441389;32;20058;-64
2022/02/18 02:14:23;;;;;;;0.40;0.40;;;6.10;99.90;;;;;;4440878;32;20394;-64
2022/02/18 02:16:49;;;;;;;2.15;1.27;;;6.00;99.90;;;;;;4441737;32;20130;-63
2022/02/18 02:19:14;;;;;;;0.50;0.50;;;6.00;99.90;;;;;;4439932;32;20065;-64
2022/02/18 02:21:55;;;;;;;0.30;0.30;;;6.00;99.90;;;;;;4441009;32;20433;-64
2022/02/18 02:24:21;;;;;;;0.43;0.43;;;6.00;99.90;;;;;;4439768;32;20085;-64
2022/02/18 02:26:47;;;;;;;0.40;0.40;;;6.00;99.90;;;;;;4441213;32;20088;-64
2022/02/18 02:29:13;;;;;;;2.35;1.37;;;6.00;99.90;;;;;;4440977;32;20081;-64
2022/02/18 02:31:40;;;;;;;0.40;0.40;;;5.90;99.90;;;;;;4440677;32;20057;-64
2022/02/18 02:34:06;;;;;;;2.85;1.42;;;5.90;99.90;;;;;;4439135;32;20396;-64
2022/02/18 02:36:31;;;;;;;0.30;0.30;;;5.90;99.90;;;;;;4441333;32;20061;-64
2022/02/18 02:38:57;;;;;;;0.40;0.40;;;5.90;99.90;;;;;;4439816;32;20080;-64
2022/02/18 02:41:23;;;;;;;0.80;0.80;;;5.80;99.90;;;;;;4440371;32;20503;-64
2022/02/18 02:43:49;;;;;;;0.60;0.60;;;5.80;99.90;;;;;;4440038;32;20081;-64
2022/02/18 02:46:15;;;;;;;0.40;0.40;;;5.90;99.90;;;;;;4441423;32;20089;-64
2022/02/18 02:48:41;;;;;;;0.40;0.40;;;5.80;99.90;;;;;;4439077;32;20112;-64
2022/02/18 02:51:06;;;;;;;0.40;0.40;;;5.80;99.90;;;;;;4440200;32;20092;-64
2022/02/18 02:53:32;;;;;;;1.90;0.75;;;5.90;99.90;;;;;;4439660;32;20073;-63
2022/02/18 02:55:58;;;;;;;4.28;1.70;;;5.80;99.90;;;;;;4440732;32;20069;-64
2022/02/18 02:58:23;;;;;;;1.62;1.33;;;5.80;99.90;;;;;;4440703;32;20057;-63
2022/02/18 03:00:49;;;;;;;0.40;0.40;;;5.80;99.90;;;;;;4438817;32;20429;-63
2022/02/18 03:03:14;;;;;;;0.85;0.85;;;5.80;99.90;;;;;;4437801;32;20065;-63
2022/02/18 03:05:40;;;;;;;0.30;0.30;;;5.80;99.90;;;;;;4440900;32;20066;-63
2022/02/18 03:08:05;;;;;;;0.40;0.40;;;5.90;99.90;;;;;;4440985;32;20065;-63
2022/02/18 03:10:31;;;;;;;1.10;1.02;;;5.90;99.90;;;;;;4440165;32;20118;-63
2022/02/18 03:12:57;;;;;;;0.30;0.30;;;5.90;99.90;;;;;;4441422;32;20077;-63
2022/02/18 03:15:22;;;;;;;0.40;0.40;;;5.90;99.90;;;;;;4442187;32;20132;-63
2022/02/18 03:17:48;;;;;;;10.05;1.27;;;5.80;99.90;;;;;;4439756;32;20116;-63
2022/02/18 03:20:14;;;;;;;0.40;0.40;;;5.90;99.90;;;;;;4437569;32;20078;-63
2022/02/18 03:22:39;;;;;;;0.35;0.35;;;5.90;99.90;;;;;;4439661;32;20159;-63
2022/02/18 03:25:05;;;;;;;1.15;0.80;;;5.80;99.90;;;;;;4439994;32;20146;-63
2022/02/18 03:27:31;;;;;;;0.65;0.65;;;5.80;99.90;;;;;;4440230;32;20521;-63
2022/02/18 03:29:56;;;;;;;2.15;0.95;;;5.80;99.90;;;;;;4439595;32;20069;-63
2022/02/18 03:32:22;;;;;;;1.65;0.95;;;5.80;99.90;;;;;;4437324;32;20060;-63
2022/02/18 03:34:47;;;;;;;0.37;0.37;;;5.80;99.90;;;;;;4438352;32;20559;-64
2022/02/18 03:37:13;;;;;;;0.43;0.43;;;5.70;99.90;;;;;;4439904;32;20500;-64
2022/02/18 03:39:38;;;;;;;3.12;1.35;;;5.80;99.90;;;;;;4440277;32;20077;-64
2022/02/18 03:42:04;;;;;;;0.40;0.40;;;5.70;99.90;;;;;;4440817;32;20065;-63
2022/02/18 03:44:30;;;;;;;0.40;0.40;;;5.70;99.90;;;;;;4438853;32;20090;-63
2022/02/18 03:46:55;;;;;;;0.40;0.40;;;5.70;99.90;;;;;;4440165;32;20096;-63
2022/02/18 03:49:21;;;;;;;0.40;0.40;;;5.70;99.90;;;;;;4438106;32;20077;-63
2022/02/18 03:51:46;;;;;;;0.40;0.40;;;5.60;99.90;;;;;;4438626;32;20108;-63
2022/02/18 03:54:12;;;;;;;0.40;0.40;;;5.70;99.90;;;;;;4443124;32;20073;-63
2022/02/18 03:56:37;;;;;;;0.40;0.40;;;5.70;99.90;;;;;;4441225;32;20121;-63
2022/02/18 03:59:03;;;;;;;0.50;0.50;;;5.60;99.90;;;;;;4443451;32;20084;-63
2022/02/18 04:01:29;;;;;;;0.52;0.52;;;5.60;99.90;;;;;;4441790;32;20558;-63
2022/02/18 04:03:54;;;;;;;0.40;0.40;;;5.60;99.90;;;;;;4443075;32;20145;-63
2022/02/18 04:06:20;;;;;;;0.40;0.40;;;5.60;99.90;;;;;;4442154;32;20065;-63
2022/02/18 04:08:45;;;;;;;0.30;0.30;;;5.50;99.90;;;;;;4442372;32;20068;-63
2022/02/18 04:11:11;;;;;;;1.55;1.02;;;5.50;99.90;;;;;;4442605;32;20532;-63
2022/02/18 04:13:36;;;;;;;0.80;0.75;;;5.50;99.90;;;;;;4442200;32;20069;-63
2022/02/18 04:16:02;;;;;;;6.03;1.20;;;5.50;99.90;;;;;;4441907;32;20073;-63
2022/02/18 04:18:27;;;;;;;1.00;1.00;;;5.50;99.90;;;;;;4443020;32;20496;-62
2022/02/18 04:20:53;;;;;;;2.92;0.93;;;5.50;99.90;;;;;;4441245;32;20073;-63
2022/02/18 04:23:18;;;;;;;4.03;1.37;;;5.40;99.90;;;;;;4441988;32;20142;-63
2022/02/18 04:25:44;;;;;;;0.40;0.40;;;5.40;99.90;;;;;;4442071;32;20456;-63
2022/02/18 04:28:09;;;;;;;0.35;0.35;;;5.40;99.90;;;;;;4442707;32;20077;-63
2022/02/18 04:30:35;;;;;;;0.75;0.75;;;5.40;99.90;;;;;;4443283;32;20459;-63
2022/02/18 04:33:00;;;;;;;0.60;0.60;;;5.40;99.90;;;;;;4440949;32;20068;-63
2022/02/18 04:35:26;;;;;;;0.68;0.68;;;5.30;99.90;;;;;;4441093;32;20084;-63
2022/02/18 04:37:52;;;;;;;0.40;0.40;;;5.30;99.90;;;;;;4441632;32;20465;-63
2022/02/18 04:40:18;;;;;;;0.40;0.40;;;5.40;99.90;;;;;;4439957;32;20126;-63
2022/02/18 04:42:45;;;;;;;0.40;0.40;;;5.30;99.90;;;;;;4441375;32;20080;-63
2022/02/18 04:45:12;;;;;;;1.25;1.15;;;5.30;99.90;;;;;;4442817;32;20110;-63
2022/02/18 04:47:37;;;;;;;0.47;0.47;;;5.40;99.90;;;;;;4441714;32;20097;-63
2022/02/18 04:50:05;;;;;;;0.60;0.60;;;5.30;99.90;;;;;;4440876;32;20049;-63
2022/02/18 04:52:31;;;;;;;2.30;0.70;;;5.30;99.90;;;;;;4440033;32;20093;-63
2022/02/18 04:54:56;;;;;;;0.50;0.50;;;5.30;99.90;;;;;;4442057;32;20057;-63
2022/02/18 04:57:22;;;;;;;0.47;0.47;;;5.30;99.90;;;;;;4441526;32;20088;-63
2022/02/18 04:59:47;;;;;;;0.40;0.40;;;5.30;99.90;;;;;;4441491;32;20120;-63
2022/02/18 05:02:16;;;;;;;0.40;0.40;;;5.30;99.90;;;;;;4441538;32;20115;-63
2022/02/18 05:04:42;;;;;;;8.38;1.77;;;5.30;99.90;;;;;;4440703;32;20061;-62
2022/02/18 05:07:08;;;;;;;0.50;0.50;;;5.20;99.90;;;;;;4440077;32;20064;-62
2022/02/18 05:09:33;;;;;;;0.40;0.40;;;5.20;99.90;;;;;;4441791;32;20069;-62
2022/02/18 05:11:59;;;;;;;1.75;1.05;;;5.20;99.90;;;;;;4442229;32;20077;-62
2022/02/18 05:14:24;;;;;;;1.42;0.77;;;5.30;99.90;;;;;;4442832;32;20647;-62
2022/02/18 05:16:50;;;;;;;0.50;0.50;;;5.30;99.90;;;;;;4441251;32;20064;-62
2022/02/18 05:19:15;;;;;;;2.08;1.70;;;5.20;99.90;;;;;;4440676;32;20061;-62
2022/02/18 05:21:41;;;;;;;0.93;0.93;;;5.20;99.90;;;;;;4432592;32;20104;-63
2022/02/18 05:24:07;;;;;;;1.95;1.02;;;5.20;99.90;;;;;;4437992;32;20108;-63
2022/02/18 05:26:34;;;;;;;0.98;0.90;;;5.20;99.90;;;;;;4440853;32;20084;-62
2022/02/18 05:28:59;;;;;;;0.55;0.55;;;5.20;99.90;;;;;;4441786;32;20078;-62
2022/02/18 05:31:25;;;;;;;4.35;1.37;;;5.20;99.90;;;;;;4439978;32;20605;-63
2022/02/18 05:33:51;;;;;;;0.40;0.40;;;5.20;99.90;;;;;;4442329;32;20065;-63
2022/02/18 05:36:16;;;;;;;0.50;0.50;;;5.20;99.90;;;;;;4440711;32;20061;-63
2022/02/18 05:38:43;;;;;;;0.77;0.77;;;5.20;99.90;;;;;;4440081;32;20441;-63
2022/02/18 05:41:12;;;;;;;0.40;0.40;;;5.20;99.90;;;;;;4441653;32;20077;-63
2022/02/18 05:43:38;;;;;;;0.52;0.35;;;5.20;99.90;;;;;;4440409;32;20081;-63
2022/02/18 05:46:04;;;;;;;3.20;1.05;;;5.20;99.90;;;;;;4440423;32;20068;-63
2022/02/18 05:48:31;;;;;;;0.50;0.50;;;5.10;99.90;;;;;;4439574;32;20065;-63
2022/02/18 05:50:56;;;;;;;0.40;0.40;;;5.10;99.90;;;;;;4440384;32;20085;-63
2022/02/18 05:53:22;;;;;;;0.90;0.70;;;5.10;99.90;;;;;;4440822;32;20425;-63
2022/02/18 05:55:47;;;;;;;0.52;0.52;;;5.00;99.90;;;;;;4440343;32;20057;-63
2022/02/18 05:58:13;;;;;;;0.73;0.73;;;4.90;99.90;;;;;;4440883;32;20077;-63
2022/02/18 06:00:38;;;;;;;0.55;0.55;;;4.90;99.90;;;;;;4437379;32;20658;-63
2022/02/18 06:03:04;;;;;;;0.40;0.40;;;4.90;99.90;;;;;;4432042;32;20134;-63
2022/02/18 06:05:29;;;;;;;0.43;0.43;;;4.90;99.90;;;;;;4435187;32;20478;-63
2022/02/18 06:07:55;;;;;;;9.95;1.12;;;4.90;99.90;;;;;;4439662;32;21449;-63
2022/02/18 06:10:22;;;;;;;0.40;0.40;;;4.90;99.90;;;;;;4439196;32;20065;-63
2022/02/18 06:12:48;;;;;;;0.50;0.50;;;4.90;99.90;;;;;;4435961;32;20068;-63
2022/02/18 06:15:13;;;;;;;1.00;0.85;;;4.90;99.90;;;;;;4437713;32;20080;-63
2022/02/18 06:17:39;;;;;;;1.80;0.80;;;4.90;99.90;;;;;;4423185;32;20564;-64
2022/02/18 06:20:07;;;;;;;0.40;0.40;;;4.90;99.90;;;;;;4434264;32;20133;-64
2022/02/18 06:22:32;;;;;;;0.40;0.40;;;4.80;99.90;;;;;;4438074;32;20517;-63
2022/02/18 06:24:58;;;;;;;0.50;0.50;;;4.90;99.90;;;;;;4440173;32;20077;-63
2022/02/18 06:27:25;;;;;;;0.40;0.40;;;4.90;99.90;;;;;;4420856;32;20116;-63
2022/02/18 06:29:50;;;;;;;0.47;0.47;;;4.90;99.90;;;;;;4426934;32;20062;-64
2022/02/18 06:32:16;;;;;;;0.40;0.40;;;4.80;99.90;;;;;;4408290;32;21386;-64
2022/02/18 06:34:44;;;;;;;0.40;0.40;;;4.80;99.90;;;;;;4430442;32;20147;-64
2022/02/18 06:37:11;;;;;;;0.40;0.40;;;4.90;99.90;;;;;;4430642;32;20121;-63
2022/02/18 06:39:36;;;;;;;0.40;0.40;;;4.90;99.90;;;;;;4426422;32;20077;-64
2022/02/18 06:42:03;;;;;;;1.45;1.35;;;4.90;99.90;;;;;;4436074;32;20081;-64
2022/02/18 06:44:28;;;;;;;0.80;0.75;;;4.90;99.90;;;;;;4428446;32;20089;-64
2022/02/18 06:46:54;;;;;;;0.40;0.40;;;5.00;99.90;;;;;;4428148;32;20077;-63
2022/02/18 06:49:20;;;;;;;3.35;1.30;;;5.00;99.90;;;;;;4424603;32;21986;-64
2022/02/18 06:51:45;;;;;;;0.82;0.82;;;5.00;99.90;;;;;;4426260;32;20408;-63
2022/02/18 06:54:12;;;;;;;5.78;1.60;;;5.10;99.90;;;;;;4425212;32;20053;-64
2022/02/18 06:56:37;;;;;;;1.65;0.85;;;5.20;99.90;;;;;;4423988;32;20186;-64
2022/02/18 06:59:03;;;;;;;0.40;0.40;;;5.20;99.90;;;;;;4420438;32;20085;-64
2022/02/18 07:01:28;;;;;;;0.80;0.80;;;5.10;99.90;;;;;;4419205;32;20140;-64
2022/02/18 07:03:54;;;;;;;0.65;0.65;;;5.10;99.90;;;;;;4417625;32;20087;-63
2022/02/18 07:06:19;;;;;;;0.77;0.62;;;5.10;99.90;;;;;;4421161;32;20171;-65
2022/02/18 07:08:45;;;;;;;1.45;0.75;;;5.20;99.90;;;;;;4417721;32;20510;-63
2022/02/18 07:11:10;;;;;;;0.50;0.50;;;5.20;99.90;;;;;;4417677;32;20065;-65
2022/02/18 07:13:36;;;;;;;0.40;0.40;;;5.30;99.90;;;;;;4425017;32;20088;-63
2022/02/18 07:16:01;;;;;;;0.50;0.50;;;5.40;99.90;;;;;;4429296;32;20131;-64
2022/02/18 07:18:28;;;;;;;0.65;0.65;;;5.30;99.90;;;;;;4429229;32;20068;-64
2022/02/18 07:20:53;;;;;;;4.25;2.20;;;5.40;99.90;;;;;;4418862;32;20565;-64
2022/02/18 07:23:19;;;;;;;0.70;0.70;;;5.40;99.90;;;;;;4425273;32;20184;-63
2022/02/18 07:25:45;;;;;;;0.50;0.50;;;5.50;99.90;;;;;;4424851;32;20093;-64
2022/02/18 07:28:10;;;;;;;4.62;0.85;;;5.50;99.90;;;;;;4426234;32;20108;-63
2022/02/18 07:30:35;;;;;;;0.40;0.40;;;5.60;99.90;;;;;;4421607;32;20137;-64
2022/02/18 07:33:01;;;;;;;4.05;0.93;;;5.60;99.90;;;;;;4423141;32;20517;-64
2022/02/18 07:35:32;;;;;;;0.50;0.50;;;5.60;99.90;;;;;;4408375;32;82413;-63
2022/02/18 07:37:59;;;;;;;0.57;0.57;;;5.70;99.90;;;;;;4406866;32;20122;-63
2022/02/18 07:40:25;;;;;;;3.70;1.17;;;5.80;99.90;;;;;;4410106;32;20089;-63
2022/02/18 07:42:50;;;;;;;0.60;0.60;;;5.90;99.90;;;;;;4407375;32;20121;-63
2022/02/18 07:45:16;;;;;;;12.75;3.65;;;5.90;99.90;;;;;;4408887;32;20144;-64
2022/02/18 07:47:42;;;;;;;0.50;0.50;;;6.00;99.90;;;;;;4411779;32;20147;-64
2022/02/18 07:50:07;;;;;;;0.70;0.70;;;5.90;99.90;;;;;;4410891;32;20080;-64
2022/02/18 07:52:33;;;;;;;0.57;0.57;;;5.90;99.90;;;;;;4411354;32;20168;-63
2022/02/18 07:54:59;;;;;;;0.40;0.40;;;5.90;99.90;;;;;;4411743;32;20089;-63
2022/02/18 07:57:25;;;;;;;1.17;1.08;;;5.90;99.90;;;;;;4410550;32;20208;-63
2022/02/18 07:59:51;;;;;;;4.12;2.50;;;6.00;99.90;;;;;;4411439;32;20054;-63
2022/02/18 08:02:17;;;;;;;0.55;0.55;;;6.00;99.90;;;;;;4410250;32;20167;-63
2022/02/18 08:04:42;;;;;;;1.90;0.93;;;6.10;99.90;;;;;;4412834;32;20238;-63
2022/02/18 08:07:09;;;;;;;0.88;0.88;;;6.10;99.90;;;;;;4407936;32;20065;-63
2022/02/18 08:09:35;;;;;;;3.45;1.30;;;6.20;99.90;;;;;;4407885;32;20077;-63
2022/02/18 08:12:01;;;;;;;0.40;0.40;;;6.10;99.90;;;;;;4411834;32;20461;-64
2022/02/18 08:14:27;;;;;;;0.30;0.30;;;6.10;99.90;;;;;;4411596;32;20804;-64
2022/02/18 08:16:52;;;;;;;29.00;1.62;;;6.20;99.90;;;;;;4413084;32;20194;-64
2022/02/18 08:19:20;;;;;;;1.55;1.17;;;6.30;99.90;;;;;;4409658;32;20080;-63
2022/02/18 08:21:47;;;;;;;2.40;1.08;;;6.40;99.90;;;;;;4416181;32;20580;-63
2022/02/18 08:24:17;;;;;;;0.55;0.55;;;6.40;99.90;;;;;;4422339;32;20085;-64
2022/02/18 08:26:44;;;;;;;1.85;0.75;;;6.40;99.90;;;;;;4413510;32;20092;-63
2022/02/18 08:29:10;;;;;;;0.45;0.45;;;6.50;99.90;;;;;;4413483;32;20065;-64
2022/02/18 08:31:35;;;;;;;6.37;1.42;;;6.60;99.90;;;;;;4413297;32;20084;-63
2022/02/18 08:34:01;;;;;;;19.40;3.55;;;6.60;99.90;;;;;;4410309;32;20778;-63
2022/02/18 08:36:26;;;;;;;0.55;0.55;;;6.70;99.90;;;;;;4414898;32;20077;-63
2022/02/18 08:38:52;;;;;;;8.57;2.10;;;6.80;99.90;;;;;;4417697;32;20667;-63
2022/02/18 08:41:17;;;;;;;2.62;1.55;;;6.80;99.90;;;;;;4422731;32;20280;-63
2022/02/18 08:43:43;;;;;;;0.40;0.40;;;6.70;99.90;;;;;;4414382;32;20556;-62
2022/02/18 08:46:08;;;;;;;0.30;0.30;;;6.80;99.90;;;;;;4411930;32;20594;-64
2022/02/18 08:48:34;;;;;;;0.70;0.70;;;6.80;99.90;;;;;;4412956;32;20121;-62
2022/02/18 08:51:00;;;;;;;1.35;1.25;;;6.80;99.90;;;;;;4404147;32;20976;-62
2022/02/18 08:53:25;;;;;;;2.92;0.80;;;7.00;99.90;;;;;;4407074;32;20652;-62
2022/02/18 08:55:51;;;;;;;0.47;0.47;;;7.10;99.90;;;;;;4409284;32;20967;-63
2022/02/18 08:58:17;;;;;;;1.30;0.95;;;7.10;99.90;;;;;;4410148;32;20089;-64
2022/02/18 09:00:42;;;;;;;1.40;1.10;;;7.10;99.90;;;;;;4409685;32;20097;-63
2022/02/18 09:03:10;;;;;;;0.40;0.40;;;7.10;99.90;;;;;;4410912;32;20529;-63
2022/02/18 09:05:35;;;;;;;2.42;1.42;;;7.20;99.90;;;;;;4410263;32;20088;-64
2022/02/18 09:08:01;;;;;;;0.40;0.40;;;7.20;99.90;;;;;;4420418;32;20418;-64
2022/02/18 09:10:26;;;;;;;1.17;0.70;;;7.20;99.90;;;;;;4413568;32;20349;-63
2022/02/18 09:12:52;;;;;;;0.50;0.50;;;7.30;99.90;;;;;;4413795;32;21032;-64
2022/02/18 09:15:19;;;;;;;0.50;0.50;;;7.40;99.90;;;;;;4409934;32;21193;-63
2022/02/18 09:17:44;;;;;;;0.65;0.55;;;7.60;99.90;;;;;;4409648;32;20462;-63
2022/02/18 09:20:10;;;;;;;0.68;0.68;;;7.70;99.90;;;;;;4409087;32;20137;-63
2022/02/18 09:22:36;;;;;;;3.42;1.12;;;7.70;99.90;;;;;;4410169;32;20515;-64
2022/02/18 09:25:02;;;;;;;0.50;0.50;;;7.70;99.90;;;;;;4411155;32;20173;-63
2022/02/18 09:27:27;;;;;;;16.27;0.95;;;7.80;99.90;;;;;;4405372;32;20093;-63
2022/02/18 09:29:53;;;;;;;0.60;0.60;;;7.90;99.90;;;;;;4406677;32;20242;-63
2022/02/18 09:32:19;;;;;;;0.30;0.30;;;7.90;99.90;;;;;;4417792;32;20070;-63
2022/02/18 09:34:44;;;;;;;0.40;0.40;;;7.80;99.90;;;;;;4405151;32;20200;-64
2022/02/18 09:37:15;;;;;;;0.45;0.45;;;7.70;99.90;;;;;;4406847;32;20514;-64
2022/02/18 09:39:42;;;;;;;0.50;0.50;;;7.70;99.90;;;;;;4408288;32;20116;-64
2022/02/18 09:42:08;;;;;;;2.17;0.77;;;7.70;99.90;;;;;;4413430;32;20081;-64
2022/02/18 09:44:35;;;;;;;4.18;2.47;;;7.70;99.90;;;;;;4415134;32;20077;-64
2022/02/18 09:47:01;;;;;;;3.72;1.30;;;7.70;99.90;;;;;;4414399;32;20064;-64
2022/02/18 09:49:28;;;;;;;0.62;0.62;;;7.70;99.90;;;;;;4410864;32;20206;-64
2022/02/18 09:51:55;;;;;;;5.43;1.85;;;7.80;99.90;;;;;;4408817;32;20761;-64
2022/02/18 09:54:20;;;;;;;1.40;1.30;;;7.80;99.90;;;;;;4417637;32;21394;-64
2022/02/18 09:56:47;;;;;;;0.40;0.40;;;7.90;99.90;;;;;;4412049;32;20101;-64
2022/02/18 09:59:13;;;;;;;0.65;0.65;;;7.80;99.90;;;;;;4414005;32;20085;-64
2022/02/18 10:01:39;;;;;;;2.10;1.17;;;7.80;99.90;;;;;;4408438;32;20832;-64
2022/02/18 10:04:04;;;;;;;0.30;0.30;;;7.90;99.90;;;;;;4402085;32;20144;-64
2022/02/18 10:06:30;;;;;;;1.98;1.15;;;8.00;99.90;;;;;;4411197;32;20096;-64
2022/02/18 10:08:58;;;;;;;0.73;0.70;;;8.10;99.90;;;;;;4408721;32;20089;-64
2022/02/18 10:11:24;;;;;;;0.40;0.40;;;8.10;99.90;;;;;;4401607;32;20680;-64
2022/02/18 10:13:53;;;;;;;0.57;0.57;;;8.10;99.90;;;;;;4401080;32;20089;-64
2022/02/18 10:16:21;;;;;;;0.47;0.47;;;8.10;99.90;;;;;;4403135;32;20148;-64
2022/02/18 10:18:51;;;;;;;0.40;0.40;;;8.10;99.90;;;;;;4409373;32;20085;-64
2022/02/18 10:21:23;;;;;;;0.40;0.40;;;8.10;99.90;;;;;;4408649;32;20110;-65
2022/02/18 10:23:51;;;;;;;0.68;0.68;;;8.10;99.90;;;;;;4406581;32;20193;-64
2022/02/18 10:26:32;;;;;;;1.17;0.85;;;8.20;99.90;;;;;;4409772;32;20105;-64
2022/02/18 10:28:58;;;;;;;0.40;0.40;;;8.20;99.90;;;;;;4404993;32;21299;-64
2022/02/18 10:31:23;;;;;;;0.40;0.40;;;8.20;99.90;;;;;;4405393;32;20171;-65
2022/02/18 10:34:07;;;;;;;0.30;0.30;;;8.20;99.90;;;;;;4402572;32;20109;-64
2022/02/18 10:36:41;;;;;;;0.40;0.40;;;8.20;99.90;;;;;;4408108;32;20082;-64
2022/02/18 10:39:32;;;;;;;3.70;1.20;;;8.30;99.90;;;;;;4409091;32;20089;-65
2022/02/18 10:42:00;;;;;;;0.43;0.43;;;8.20;99.90;;;;;;4410843;32;20097;-65
2022/02/18 10:44:29;;;;;;;0.50;0.50;;;8.30;99.90;;;;;;4409260;32;20102;-64
2022/02/18 10:46:55;;;;;;;0.80;0.47;;;8.30;99.90;;;;;;4412834;32;20089;-64
2022/02/18 10:49:24;;;;;;;4.25;1.02;;;8.40;99.90;;;;;;4414594;32;20084;-64
2022/02/18 10:51:50;;;;;;;2.20;0.57;;;8.40;99.90;;;;;;4416710;32;20569;-64
2022/02/18 10:54:17;;;;;;;0.25;0.25;;;8.40;99.90;;;;;;4417332;32;20064;-65
2022/02/18 10:56:42;;;;;;;1.17;0.88;;;8.30;99.90;;;;;;4408598;32;20699;-64
2022/02/18 10:59:08;;;;;;;0.70;0.70;;;8.30;99.90;;;;;;4412640;32;20096;-64
2022/02/18 11:01:43;;;;;;;1.70;1.50;;;8.30;99.90;;;;;;4416686;32;20101;-64
2022/02/18 11:04:10;;;;;;;0.70;0.70;;;8.30;99.90;;;;;;4419792;32;20135;-65
2022/02/18 11:06:37;;;;;;;1.12;0.95;;;8.30;99.90;;;;;;4414281;32;20100;-65
2022/02/18 11:09:08;;;;;;;0.40;0.40;;;8.30;99.90;;;;;;4416396;32;20533;-65
2022/02/18 11:11:37;;;;;;;1.25;0.82;;;8.30;99.90;;;;;;4412695;32;20956;-64
2022/02/18 11:14:05;;;;;;;0.70;0.70;;;8.20;99.90;;;;;;4411233;32;20073;-65
2022/02/18 11:16:32;;;;;;;0.40;0.40;;;8.10;99.90;;;;;;4401206;32;20571;-65
2022/02/18 11:18:59;;;;;;;1.98;1.12;;;8.10;99.90;;;;;;4409346;32;20787;-65
2022/02/18 11:21:27;;;;;;;0.45;0.45;;;8.00;99.90;;;;;;4411074;32;20359;-65
2022/02/18 11:23:55;;;;;;;0.40;0.40;;;8.00;99.90;;;;;;4413081;32;20089;-64
2022/02/18 11:26:23;;;;;;;0.40;0.40;;;7.90;99.90;;;;;;4411716;32;20155;-63
2022/02/18 11:28:50;;;;;;;0.30;0.30;;;7.80;99.90;;;;;;4414319;32;20092;-64
2022/02/18 11:31:18;;;;;;;0.30;0.30;;;7.80;99.90;;;;;;4414058;32;20094;-65
2022/02/18 11:34:16;;;;;;;0.40;0.40;;;7.70;99.90;;;;;;4409393;32;20195;-65
2022/02/18 11:37:00;;;;;;;0.45;0.45;;;7.60;99.90;;;;;;4413956;32;20102;-65
2022/02/18 11:39:55;;;;;;;0.30;0.30;;;7.60;99.90;;;;;;4417103;32;20785;-65
2022/02/18 11:42:48;;;;;;;0.40;0.40;;;7.60;99.90;;;;;;4412107;32;20671;-65
2022/02/18 11:45:16;;;;;;;0.40;0.40;;;7.60;99.90;;;;;;4411182;32;20100;-65
2022/02/18 11:47:43;;;;;;;0.50;0.50;;;7.60;99.90;;;;;;4419961;32;20167;-65
2022/02/18 11:50:11;;;;;;;14.05;3.60;;;7.50;99.90;;;;;;4421428;32;20797;-64
2022/02/18 11:52:43;;;;;;;8.50;2.10;;;7.60;99.90;;;;;;4410396;32;20114;-63
2022/02/18 11:55:37;;;;;;;1.95;0.70;;;7.50;99.90;;;;;;4397865;32;20155;-64
2022/02/18 11:58:07;;;;;;;0.70;0.70;;;7.50;99.90;;;;;;4406002;32;20249;-64
2022/02/18 12:00:38;;;;;;;0.73;0.73;;;7.50;99.90;;;;;;4409394;32;20489;-64
2022/02/18 12:03:21;;;;;;;0.30;0.30;;;7.50;99.90;;;;;;4410156;32;20567;-64
2022/02/18 12:06:09;;;;;;;0.30;0.30;;;7.60;99.90;;;;;;4418964;32;20487;-65
2022/02/18 12:08:38;;;;;;;0.52;0.52;;;7.60;99.90;;;;;;4409523;32;20136;-65
2022/02/18 12:11:08;;;;;;;1.60;1.27;;;7.60;99.90;;;;;;4407174;32;20097;-64
2022/02/18 12:13:50;;;;;;;0.40;0.40;;;7.50;99.90;;;;;;4418374;32;20456;-65
2022/02/18 12:16:16;;;;;;;0.40;0.40;;;7.60;99.90;;;;;;4417658;32;20080;-65
2022/02/18 12:18:44;;;;;;;0.40;0.40;;;7.70;99.90;;;;;;4415676;32;20309;-64
2022/02/18 12:21:11;;;;;;;0.60;0.60;;;7.60;99.90;;;;;;4414358;32;20187;-64
2022/02/18 12:23:42;;;;;;;0.62;0.62;;;7.50;99.90;;;;;;4416566;32;20560;-64
2022/02/18 12:26:24;;;;;;;0.45;0.45;;;7.60;99.90;;;;;;4418192;32;20722;-65
2022/02/18 12:29:12;;;;;;;0.77;0.77;;;7.70;99.90;;;;;;4419525;32;20399;-64
2022/02/18 12:31:54;;;;;;;0.40;0.40;;;7.70;99.90;;;;;;4408797;32;20084;-65
2022/02/18 12:34:28;;;;;;;0.40;0.40;;;7.70;99.90;;;;;;4408838;32;20073;-64
2022/02/18 12:36:55;;;;;;;0.85;0.85;;;7.70;99.90;;;;;;4422042;32;20152;-64
2022/02/18 12:39:45;;;;;;;0.70;0.70;;;7.70;99.90;;;;;;4420403;32;20644;-65
2022/02/18 12:42:14;;;;;;;1.48;0.75;;;7.80;99.90;;;;;;4408066;32;20097;-66
2022/02/18 12:44:50;;;;;;;0.30;0.30;;;7.80;99.90;;;;;;4412596;32;20793;-65
2022/02/18 12:47:20;;;;;;;0.60;0.57;;;7.80;99.90;;;;;;4414421;32;20877;-65
2022/02/18 12:49:46;;;;;;;0.40;0.40;;;7.80;99.90;;;;;;4403526;32;20213;-65
2022/02/18 12:52:12;;;;;;;0.60;0.60;;;7.80;99.90;;;;;;4414778;32;20110;-65
2022/02/18 12:54:50;;;;;;;0.50;0.50;;;7.80;99.90;;;;;;4421529;32;21164;-65
2022/02/18 12:57:19;;;;;;;0.50;0.50;;;7.80;99.90;;;;;;4418597;32;20070;-66